Main page
METAR-TAF:

METAR-TAF

Airports :

Basra, Iraq

Basra International Airport

latitude: 30-32-56N, longitude: 47-39-45E, elevation: 1 m

Current weather observation

The report was made 40 minutes ago, at 03:00 UTC
Wind 7 kt from the East/Southeast
Temperature 28°C
Humidity 37%
Pressure 1007 hPa
Visibility: 1500 m
widespread dust

METAR: ORMM 290300Z 12007KT 1500 DU NSC 28/12 Q1007 NOSIG

Time: 06:40 (03:40 UTC)

Forecast

The report was made 5 hours and 40 minutes ago, at 22:00 UTC
Forecast valid from 29 at 00 UTC to 29 at 24 UTC
Wind 10 kt from the Southeast
Visibility 10 km or more
no clouds below 1500 m and no cumulonimbus
Temporary
from 29 at 10 UTC to 29 at 15 UTC
Wind 12 kt from the South/Southeast
Visibility: 6000 m

TAF: ORMM 282200Z 2900/2924 13010KT CAVOK TEMPO 2910/2915 15012KT 6000 NSC

Weather observations and forecasts of more than 4000 airports (METAR and TAF reports).

The available stations are represented by yellow and red dots on the map.

Hover mouse over dot to see the name of the station.

Then click to see weather observations and forecasts.

To change the map : click on the green buttons with a black cross to zoom in, on the green button with a dash to zoom out, or on the green arrows for adjacent maps.


METAR-TAF: